sensor_id;sensor_type;location;lat;lon;timestamp;P1;durP1;ratioP1;P2;durP2;ratioP2
22289;SDS011;11313;50.116;8.424;2023-04-01T00:01:24;421.52;;;395.85;;
22289;SDS011;11313;50.116;8.424;2023-04-01T00:03:51;417.40;;;392.30;;
22289;SDS011;11313;50.116;8.424;2023-04-01T00:06:17;397.95;;;373.98;;
22289;SDS011;11313;50.116;8.424;2023-04-01T00:08:44;397.55;;;373.35;;
22289;SDS011;11313;50.116;8.424;2023-04-01T00:11:10;387.42;;;364.20;;
22289;SDS011;11313;50.116;8.424;2023-04-01T00:13:35;386.60;;;363.55;;
22289;SDS011;11313;50.116;8.424;2023-04-01T00:16:01;411.10;;;385.80;;
22289;SDS011;11313;50.116;8.424;2023-04-01T00:18:27;432.98;;;406.33;;
22289;SDS011;11313;50.116;8.424;2023-04-01T00:20:53;403.23;;;378.38;;
22289;SDS011;11313;50.116;8.424;2023-04-01T00:23:19;478.50;;;449.33;;
22289;SDS011;11313;50.116;8.424;2023-04-01T00:25:45;440.30;;;412.92;;
22289;SDS011;11313;50.116;8.424;2023-04-01T00:28:13;436.00;;;409.40;;
22289;SDS011;11313;50.116;8.424;2023-04-01T00:30:42;433.05;;;406.75;;
22289;SDS011;11313;50.116;8.424;2023-04-01T00:33:08;422.70;;;396.80;;
22289;SDS011;11313;50.116;8.424;2023-04-01T00:35:34;413.50;;;388.63;;
22289;SDS011;11313;50.116;8.424;2023-04-01T00:38:00;380.15;;;356.75;;
22289;SDS011;11313;50.116;8.424;2023-04-01T00:40:33;403.95;;;379.35;;
22289;SDS011;11313;50.116;8.424;2023-04-01T00:43:00;429.63;;;403.08;;
22289;SDS011;11313;50.116;8.424;2023-04-01T00:45:28;461.58;;;432.83;;
22289;SDS011;11313;50.116;8.424;2023-04-01T00:48:24;406.55;;;381.73;;
22289;SDS011;11313;50.116;8.424;2023-04-01T00:51:13;419.10;;;393.30;;
22289;SDS011;11313;50.116;8.424;2023-04-01T00:56:12;384.98;;;361.48;;
22289;SDS011;11313;50.116;8.424;2023-04-01T00:58:41;436.48;;;409.55;;
22289;SDS011;11313;50.116;8.424;2023-04-01T01:01:11;459.48;;;431.48;;
22289;SDS011;11313;50.116;8.424;2023-04-01T01:03:37;448.58;;;420.23;;
22289;SDS011;11313;50.116;8.424;2023-04-01T01:06:20;488.55;;;458.30;;
22289;SDS011;11313;50.116;8.424;2023-04-01T01:09:21;419.63;;;393.55;;
22289;SDS011;11313;50.116;8.424;2023-04-01T01:20:11;423.63;;;397.58;;
22289;SDS011;11313;50.116;8.424;2023-04-01T01:25:54;376.45;;;353.73;;
22289;SDS011;11313;50.116;8.424;2023-04-01T01:31:37;404.77;;;380.23;;
22289;SDS011;11313;50.116;8.424;2023-04-01T01:34:31;430.48;;;404.50;;
22289;SDS011;11313;50.116;8.424;2023-04-01T01:37:10;393.00;;;369.58;;
22289;SDS011;11313;50.116;8.424;2023-04-01T01:39:39;434.10;;;407.43;;
22289;SDS011;11313;50.116;8.424;2023-04-01T01:42:08;423.17;;;397.65;;
22289;SDS011;11313;50.116;8.424;2023-04-01T01:44:36;415.45;;;389.63;;
22289;SDS011;11313;50.116;8.424;2023-04-01T01:47:03;404.90;;;380.33;;
22289;SDS011;11313;50.116;8.424;2023-04-01T01:49:30;414.25;;;389.08;;
22289;SDS011;11313;50.116;8.424;2023-04-01T01:51:58;448.20;;;420.02;;
22289;SDS011;11313;50.116;8.424;2023-04-01T01:54:24;429.60;;;403.30;;
22289;SDS011;11313;50.116;8.424;2023-04-01T01:56:51;411.05;;;385.70;;
22289;SDS011;11313;50.116;8.424;2023-04-01T01:59:22;391.70;;;368.17;;
22289;SDS011;11313;50.116;8.424;2023-04-01T02:01:50;410.17;;;385.33;;
22289;SDS011;11313;50.116;8.424;2023-04-01T02:04:18;413.50;;;388.27;;
22289;SDS011;11313;50.116;8.424;2023-04-01T02:06:50;392.05;;;368.75;;
22289;SDS011;11313;50.116;8.424;2023-04-01T02:09:22;430.05;;;403.50;;
22289;SDS011;11313;50.116;8.424;2023-04-01T02:11:49;430.35;;;403.45;;
22289;SDS011;11313;50.116;8.424;2023-04-01T02:14:36;399.50;;;375.25;;
22289;SDS011;11313;50.116;8.424;2023-04-01T02:17:25;382.35;;;359.02;;
22289;SDS011;11313;50.116;8.424;2023-04-01T02:20:16;383.43;;;360.30;;
22289;SDS011;11313;50.116;8.424;2023-04-01T02:22:53;375.75;;;353.02;;
22289;SDS011;11313;50.116;8.424;2023-04-01T02:25:22;390.15;;;366.67;;
22289;SDS011;11313;50.116;8.424;2023-04-01T02:27:51;393.50;;;369.55;;
22289;SDS011;11313;50.116;8.424;2023-04-01T02:30:17;238.20;;;224.45;;
22289;SDS011;11313;50.116;8.424;2023-04-01T02:32:44;448.92;;;421.08;;
22289;SDS011;11313;50.116;8.424;2023-04-01T02:35:11;324.10;;;305.10;;
22289;SDS011;11313;50.116;8.424;2023-04-01T02:37:40;214.50;;;202.27;;
22289;SDS011;11313;50.116;8.424;2023-04-01T02:40:07;288.60;;;271.48;;
22289;SDS011;11313;50.116;8.424;2023-04-01T02:42:35;445.85;;;418.50;;
22289;SDS011;11313;50.116;8.424;2023-04-01T02:45:01;374.65;;;352.33;;
22289;SDS011;11313;50.116;8.424;2023-04-01T02:47:27;371.05;;;348.95;;
22289;SDS011;11313;50.116;8.424;2023-04-01T02:49:54;403.67;;;379.58;;
22289;SDS011;11313;50.116;8.424;2023-04-01T02:52:23;324.23;;;305.10;;
22289;SDS011;11313;50.116;8.424;2023-04-01T02:54:49;343.05;;;323.27;;
22289;SDS011;11313;50.116;8.424;2023-04-01T02:57:15;339.30;;;319.40;;
22289;SDS011;11313;50.116;8.424;2023-04-01T02:59:40;202.60;;;191.20;;
22289;SDS011;11313;50.116;8.424;2023-04-01T03:02:05;216.27;;;204.05;;
22289;SDS011;11313;50.116;8.424;2023-04-01T03:04:31;353.33;;;332.70;;
22289;SDS011;11313;50.116;8.424;2023-04-01T03:06:57;329.92;;;310.30;;
22289;SDS011;11313;50.116;8.424;2023-04-01T03:09:23;314.83;;;296.35;;
22289;SDS011;11313;50.116;8.424;2023-04-01T03:11:48;358.27;;;337.10;;
22289;SDS011;11313;50.116;8.424;2023-04-01T03:14:14;317.85;;;299.08;;
22289;SDS011;11313;50.116;8.424;2023-04-01T03:16:39;353.13;;;332.45;;
22289;SDS011;11313;50.116;8.424;2023-04-01T03:19:05;349.20;;;328.48;;
22289;SDS011;11313;50.116;8.424;2023-04-01T03:21:31;414.70;;;389.48;;
22289;SDS011;11313;50.116;8.424;2023-04-01T03:23:57;275.17;;;259.38;;
22289;SDS011;11313;50.116;8.424;2023-04-01T03:26:23;307.95;;;290.38;;
22289;SDS011;11313;50.116;8.424;2023-04-01T03:28:49;423.08;;;397.10;;
22289;SDS011;11313;50.116;8.424;2023-04-01T03:31:14;306.88;;;289.38;;
22289;SDS011;11313;50.116;8.424;2023-04-01T03:33:41;306.98;;;289.20;;
22289;SDS011;11313;50.116;8.424;2023-04-01T03:36:07;165.65;;;156.30;;
22289;SDS011;11313;50.116;8.424;2023-04-01T03:38:33;260.00;;;245.10;;
22289;SDS011;11313;50.116;8.424;2023-04-01T03:40:59;296.67;;;279.27;;
22289;SDS011;11313;50.116;8.424;2023-04-01T03:43:25;347.33;;;326.90;;
22289;SDS011;11313;50.116;8.424;2023-04-01T03:45:51;431.27;;;405.33;;
22289;SDS011;11313;50.116;8.424;2023-04-01T03:48:17;337.58;;;317.80;;
22289;SDS011;11313;50.116;8.424;2023-04-01T03:50:45;347.92;;;327.42;;
22289;SDS011;11313;50.116;8.424;2023-04-01T03:53:11;394.85;;;370.92;;
22289;SDS011;11313;50.116;8.424;2023-04-01T03:55:36;397.10;;;373.63;;
22289;SDS011;11313;50.116;8.424;2023-04-01T03:58:03;340.30;;;320.63;;
22289;SDS011;11313;50.116;8.424;2023-04-01T04:00:29;370.05;;;348.02;;
22289;SDS011;11313;50.116;8.424;2023-04-01T04:02:55;312.77;;;294.77;;
22289;SDS011;11313;50.116;8.424;2023-04-01T04:05:22;377.55;;;354.70;;
22289;SDS011;11313;50.116;8.424;2023-04-01T04:07:48;289.48;;;273.00;;
22289;SDS011;11313;50.116;8.424;2023-04-01T04:10:14;322.75;;;304.23;;
22289;SDS011;11313;50.116;8.424;2023-04-01T04:12:40;315.13;;;296.85;;
22289;SDS011;11313;50.116;8.424;2023-04-01T04:17:35;393.52;;;369.58;;
22289;SDS011;11313;50.116;8.424;2023-04-01T04:20:00;305.48;;;287.88;;
22289;SDS011;11313;50.116;8.424;2023-04-01T04:22:27;232.88;;;219.52;;
22289;SDS011;11313;50.116;8.424;2023-04-01T04:24:52;240.32;;;226.73;;
22289;SDS011;11313;50.116;8.424;2023-04-01T04:27:18;331.92;;;312.55;;
22289;SDS011;11313;50.116;8.424;2023-04-01T04:29:43;389.48;;;366.38;;
22289;SDS011;11313;50.116;8.424;2023-04-01T04:32:09;295.85;;;279.00;;
22289;SDS011;11313;50.116;8.424;2023-04-01T04:34:35;353.10;;;332.33;;
22289;SDS011;11313;50.116;8.424;2023-04-01T04:37:00;444.50;;;417.23;;
22289;SDS011;11313;50.116;8.424;2023-04-01T04:39:26;434.77;;;407.92;;
22289;SDS011;11313;50.116;8.424;2023-04-01T04:41:51;333.77;;;314.38;;
22289;SDS011;11313;50.116;8.424;2023-04-01T04:44:17;426.98;;;400.40;;
22289;SDS011;11313;50.116;8.424;2023-04-01T04:46:42;405.27;;;380.80;;
22289;SDS011;11313;50.116;8.424;2023-04-01T04:49:08;401.42;;;377.35;;
22289;SDS011;11313;50.116;8.424;2023-04-01T04:51:34;422.88;;;396.88;;
22289;SDS011;11313;50.116;8.424;2023-04-01T04:54:01;418.70;;;392.92;;
22289;SDS011;11313;50.116;8.424;2023-04-01T04:56:27;446.85;;;419.52;;
22289;SDS011;11313;50.116;8.424;2023-04-01T04:58:53;387.90;;;364.88;;
22289;SDS011;11313;50.116;8.424;2023-04-01T05:01:19;428.77;;;402.63;;
22289;SDS011;11313;50.116;8.424;2023-04-01T05:03:45;412.83;;;387.75;;
22289;SDS011;11313;50.116;8.424;2023-04-01T05:06:11;298.40;;;280.83;;
22289;SDS011;11313;50.116;8.424;2023-04-01T05:08:38;382.27;;;359.77;;
22289;SDS011;11313;50.116;8.424;2023-04-01T05:11:06;483.55;;;453.58;;
22289;SDS011;11313;50.116;8.424;2023-04-01T05:13:35;432.43;;;405.87;;
22289;SDS011;11313;50.116;8.424;2023-04-01T05:16:00;422.25;;;396.52;;
22289;SDS011;11313;50.116;8.424;2023-04-01T05:18:26;383.88;;;360.60;;
22289;SDS011;11313;50.116;8.424;2023-04-01T05:20:53;345.02;;;325.02;;
22289;SDS011;11313;50.116;8.424;2023-04-01T05:23:19;308.45;;;290.83;;
22289;SDS011;11313;50.116;8.424;2023-04-01T05:25:46;407.30;;;383.02;;
22289;SDS011;11313;50.116;8.424;2023-04-01T05:28:12;446.80;;;419.27;;
22289;SDS011;11313;50.116;8.424;2023-04-01T05:30:41;455.92;;;427.90;;
22289;SDS011;11313;50.116;8.424;2023-04-01T05:33:08;385.52;;;362.58;;
22289;SDS011;11313;50.116;8.424;2023-04-01T05:35:35;396.45;;;372.10;;
22289;SDS011;11313;50.116;8.424;2023-04-01T05:38:01;399.77;;;375.52;;
22289;SDS011;11313;50.116;8.424;2023-04-01T05:40:27;383.05;;;360.05;;
22289;SDS011;11313;50.116;8.424;2023-04-01T05:42:53;396.60;;;372.73;;
22289;SDS011;11313;50.116;8.424;2023-04-01T05:45:19;410.98;;;386.63;;
22289;SDS011;11313;50.116;8.424;2023-04-01T05:47:44;407.52;;;383.00;;
22289;SDS011;11313;50.116;8.424;2023-04-01T05:50:10;387.88;;;364.85;;
22289;SDS011;11313;50.116;8.424;2023-04-01T05:52:35;407.27;;;382.90;;
22289;SDS011;11313;50.116;8.424;2023-04-01T05:55:01;389.38;;;366.23;;
22289;SDS011;11313;50.116;8.424;2023-04-01T05:57:27;392.42;;;368.73;;
22289;SDS011;11313;50.116;8.424;2023-04-01T05:59:52;413.63;;;388.40;;
22289;SDS011;11313;50.116;8.424;2023-04-01T06:02:18;383.25;;;360.50;;
22289;SDS011;11313;50.116;8.424;2023-04-01T06:04:44;347.17;;;327.08;;
22289;SDS011;11313;50.116;8.424;2023-04-01T06:07:11;422.95;;;397.27;;
22289;SDS011;11313;50.116;8.424;2023-04-01T06:09:38;433.98;;;407.15;;
22289;SDS011;11313;50.116;8.424;2023-04-01T06:14:42;397.00;;;373.13;;
22289;SDS011;11313;50.116;8.424;2023-04-01T06:17:20;416.05;;;391.02;;
22289;SDS011;11313;50.116;8.424;2023-04-01T06:19:50;414.17;;;388.77;;
22289;SDS011;11313;50.116;8.424;2023-04-01T06:27:59;400.33;;;376.13;;
22289;SDS011;11313;50.116;8.424;2023-04-01T06:30:33;418.63;;;393.17;;
22289;SDS011;11313;50.116;8.424;2023-04-01T06:35:59;398.25;;;374.25;;
22289;SDS011;11313;50.116;8.424;2023-04-01T06:39:11;407.33;;;382.75;;
22289;SDS011;11313;50.116;8.424;2023-04-01T06:55:32;424.50;;;399.10;;
22289;SDS011;11313;50.116;8.424;2023-04-01T06:58:19;424.42;;;398.58;;
22289;SDS011;11313;50.116;8.424;2023-04-01T07:00:48;413.00;;;388.13;;
22289;SDS011;11313;50.116;8.424;2023-04-01T07:03:19;412.27;;;387.50;;
22289;SDS011;11313;50.116;8.424;2023-04-01T07:05:48;396.17;;;372.42;;
22289;SDS011;11313;50.116;8.424;2023-04-01T07:08:23;338.08;;;318.63;;
22289;SDS011;11313;50.116;8.424;2023-04-01T07:11:01;337.27;;;318.02;;
22289;SDS011;11313;50.116;8.424;2023-04-01T07:13:30;346.33;;;325.88;;
22289;SDS011;11313;50.116;8.424;2023-04-01T07:16:17;319.25;;;300.63;;
22289;SDS011;11313;50.116;8.424;2023-04-01T07:18:48;367.55;;;345.85;;
22289;SDS011;11313;50.116;8.424;2023-04-01T07:21:23;370.58;;;348.40;;
22289;SDS011;11313;50.116;8.424;2023-04-01T07:23:54;413.35;;;388.48;;
22289;SDS011;11313;50.116;8.424;2023-04-01T07:26:25;395.27;;;371.55;;
22289;SDS011;11313;50.116;8.424;2023-04-01T07:28:52;377.38;;;355.02;;
22289;SDS011;11313;50.116;8.424;2023-04-01T07:31:34;335.73;;;316.05;;
22289;SDS011;11313;50.116;8.424;2023-04-01T07:34:12;384.85;;;361.77;;
22289;SDS011;11313;50.116;8.424;2023-04-01T07:36:48;393.30;;;369.90;;
22289;SDS011;11313;50.116;8.424;2023-04-01T07:39:26;395.40;;;371.88;;
22289;SDS011;11313;50.116;8.424;2023-04-01T07:48:07;411.30;;;386.58;;
22289;SDS011;11313;50.116;8.424;2023-04-01T07:50:46;384.58;;;361.15;;
22289;SDS011;11313;50.116;8.424;2023-04-01T07:53:36;382.10;;;358.85;;
22289;SDS011;11313;50.116;8.424;2023-04-01T07:56:10;404.05;;;379.70;;
22289;SDS011;11313;50.116;8.424;2023-04-01T07:58:49;429.52;;;403.42;;
22289;SDS011;11313;50.116;8.424;2023-04-01T08:07:36;394.20;;;370.17;;
22289;SDS011;11313;50.116;8.424;2023-04-01T08:18:05;476.80;;;445.73;;
22289;SDS011;11313;50.116;8.424;2023-04-01T08:20:39;412.15;;;386.08;;
22289;SDS011;11313;50.116;8.424;2023-04-01T08:23:19;414.60;;;389.00;;
22289;SDS011;11313;50.116;8.424;2023-04-01T08:31:18;388.05;;;363.92;;
22289;SDS011;11313;50.116;8.424;2023-04-01T08:33:57;404.50;;;378.52;;
22289;SDS011;11313;50.116;8.424;2023-04-01T08:36:28;421.92;;;395.65;;
22289;SDS011;11313;50.116;8.424;2023-04-01T08:39:08;420.30;;;393.88;;
22289;SDS011;11313;50.116;8.424;2023-04-01T08:55:18;339.92;;;319.23;;
22289;SDS011;11313;50.116;8.424;2023-04-01T09:01:18;412.52;;;385.90;;
22289;SDS011;11313;50.116;8.424;2023-04-01T09:04:05;414.20;;;388.17;;
22289;SDS011;11313;50.116;8.424;2023-04-01T09:07:03;397.05;;;372.27;;
22289;SDS011;11313;50.116;8.424;2023-04-01T09:09:44;401.65;;;376.30;;
22289;SDS011;11313;50.116;8.424;2023-04-01T09:12:44;436.33;;;408.48;;
22289;SDS011;11313;50.116;8.424;2023-04-01T09:15:28;430.20;;;403.02;;
22289;SDS011;11313;50.116;8.424;2023-04-01T09:18:09;438.20;;;410.08;;
22289;SDS011;11313;50.116;8.424;2023-04-01T09:40:36;422.63;;;396.23;;
22289;SDS011;11313;50.116;8.424;2023-04-01T09:45:52;392.92;;;369.05;;
22289;SDS011;11313;50.116;8.424;2023-04-01T09:48:43;432.25;;;404.38;;
22289;SDS011;11313;50.116;8.424;2023-04-01T10:05:04;437.27;;;410.00;;
22289;SDS011;11313;50.116;8.424;2023-04-01T10:21:46;430.35;;;403.33;;
22289;SDS011;11313;50.116;8.424;2023-04-01T10:24:32;453.52;;;425.10;;
22289;SDS011;11313;50.116;8.424;2023-04-01T10:35:47;476.23;;;445.65;;
22289;SDS011;11313;50.116;8.424;2023-04-01T10:38:55;445.40;;;417.23;;
22289;SDS011;11313;50.116;8.424;2023-04-01T10:41:52;433.38;;;405.92;;
22289;SDS011;11313;50.116;8.424;2023-04-01T10:47:26;447.77;;;419.38;;
22289;SDS011;11313;50.116;8.424;2023-04-01T10:52:58;441.45;;;413.90;;
22289;SDS011;11313;50.116;8.424;2023-04-01T10:58:52;440.00;;;412.70;;
22289;SDS011;11313;50.116;8.424;2023-04-01T11:13:31;330.85;;;311.33;;
22289;SDS011;11313;50.116;8.424;2023-04-01T11:19:22;466.70;;;437.15;;
22289;SDS011;11313;50.116;8.424;2023-04-01T11:24:56;399.35;;;373.85;;
22289;SDS011;11313;50.116;8.424;2023-04-01T11:42:10;467.10;;;437.05;;
22289;SDS011;11313;50.116;8.424;2023-04-01T11:44:39;457.83;;;429.25;;
22289;SDS011;11313;50.116;8.424;2023-04-01T11:47:20;515.72;;;482.65;;
22289;SDS011;11313;50.116;8.424;2023-04-01T11:50:12;451.67;;;422.90;;
22289;SDS011;11313;50.116;8.424;2023-04-01T11:53:23;478.33;;;447.88;;
22289;SDS011;11313;50.116;8.424;2023-04-01T12:03:54;472.92;;;443.23;;
22289;SDS011;11313;50.116;8.424;2023-04-01T12:09:49;489.45;;;458.42;;
22289;SDS011;11313;50.116;8.424;2023-04-01T12:18:05;472.85;;;443.27;;
22289;SDS011;11313;50.116;8.424;2023-04-01T12:20:44;437.02;;;410.00;;
22289;SDS011;11313;50.116;8.424;2023-04-01T12:27:05;461.17;;;432.58;;
22289;SDS011;11313;50.116;8.424;2023-04-01T12:32:40;422.65;;;396.35;;
22289;SDS011;11313;50.116;8.424;2023-04-01T12:43:38;422.10;;;396.27;;
22289;SDS011;11313;50.116;8.424;2023-04-01T12:51:50;426.90;;;400.40;;
22289;SDS011;11313;50.116;8.424;2023-04-01T12:54:39;464.17;;;435.65;;
22289;SDS011;11313;50.116;8.424;2023-04-01T13:03:10;469.75;;;440.23;;
22289;SDS011;11313;50.116;8.424;2023-04-01T13:06:00;435.50;;;408.77;;
22289;SDS011;11313;50.116;8.424;2023-04-01T13:14:12;443.33;;;415.85;;
22289;SDS011;11313;50.116;8.424;2023-04-01T13:16:54;400.30;;;375.90;;
22289;SDS011;11313;50.116;8.424;2023-04-01T13:22:28;457.38;;;429.10;;
22289;SDS011;11313;50.116;8.424;2023-04-01T13:25:06;409.23;;;384.08;;
22289;SDS011;11313;50.116;8.424;2023-04-01T13:28:13;414.17;;;388.67;;
22289;SDS011;11313;50.116;8.424;2023-04-01T13:33:46;390.85;;;367.02;;
22289;SDS011;11313;50.116;8.424;2023-04-01T13:44:45;392.80;;;368.90;;
22289;SDS011;11313;50.116;8.424;2023-04-01T13:47:23;406.88;;;382.13;;
22289;SDS011;11313;50.116;8.424;2023-04-01T13:53:24;444.55;;;416.50;;
22289;SDS011;11313;50.116;8.424;2023-04-01T13:59:20;476.42;;;446.52;;
22289;SDS011;11313;50.116;8.424;2023-04-01T14:04:49;495.52;;;464.02;;
22289;SDS011;11313;50.116;8.424;2023-04-01T14:10:05;461.83;;;432.50;;
22289;SDS011;11313;50.116;8.424;2023-04-01T14:17:53;468.05;;;438.60;;
22289;SDS011;11313;50.116;8.424;2023-04-01T14:20:39;449.50;;;421.45;;
22289;SDS011;11313;50.116;8.424;2023-04-01T14:23:29;456.58;;;428.13;;
22289;SDS011;11313;50.116;8.424;2023-04-01T14:34:20;457.80;;;429.30;;
22289;SDS011;11313;50.116;8.424;2023-04-01T14:37:13;462.25;;;433.42;;
22289;SDS011;11313;50.116;8.424;2023-04-01T14:39:48;485.58;;;454.90;;
22289;SDS011;11313;50.116;8.424;2023-04-01T14:47:26;460.15;;;431.33;;
22289;SDS011;11313;50.116;8.424;2023-04-01T14:50:05;456.65;;;428.33;;
22289;SDS011;11313;50.116;8.424;2023-04-01T14:52:39;412.23;;;386.70;;
22289;SDS011;11313;50.116;8.424;2023-04-01T14:55:24;440.85;;;413.35;;
22289;SDS011;11313;50.116;8.424;2023-04-01T14:57:58;351.90;;;331.08;;
22289;SDS011;11313;50.116;8.424;2023-04-01T15:08:44;380.80;;;357.60;;
22289;SDS011;11313;50.116;8.424;2023-04-01T15:11:41;462.77;;;433.70;;
22289;SDS011;11313;50.116;8.424;2023-04-01T15:14:22;489.17;;;458.40;;
22289;SDS011;11313;50.116;8.424;2023-04-01T15:19:50;334.67;;;314.98;;
22289;SDS011;11313;50.116;8.424;2023-04-01T15:22:45;389.50;;;365.70;;
22289;SDS011;11313;50.116;8.424;2023-04-01T15:28:24;380.08;;;356.98;;
22289;SDS011;11313;50.116;8.424;2023-04-01T15:36:42;365.02;;;343.52;;
22289;SDS011;11313;50.116;8.424;2023-04-01T15:48:35;343.15;;;322.75;;
22289;SDS011;11313;50.116;8.424;2023-04-01T15:57:06;310.33;;;292.30;;
22289;SDS011;11313;50.116;8.424;2023-04-01T15:59:47;318.33;;;299.88;;
22289;SDS011;11313;50.116;8.424;2023-04-01T16:04:58;379.38;;;356.10;;
22289;SDS011;11313;50.116;8.424;2023-04-01T16:16:09;294.15;;;276.98;;
22289;SDS011;11313;50.116;8.424;2023-04-01T16:18:52;280.13;;;264.02;;
22289;SDS011;11313;50.116;8.424;2023-04-01T16:21:58;310.58;;;292.48;;
22289;SDS011;11313;50.116;8.424;2023-04-01T16:24:38;305.50;;;287.80;;
22289;SDS011;11313;50.116;8.424;2023-04-01T16:27:12;306.27;;;288.38;;
22289;SDS011;11313;50.116;8.424;2023-04-01T16:41:14;395.95;;;370.48;;
22289;SDS011;11313;50.116;8.424;2023-04-01T16:43:44;352.70;;;331.20;;
22289;SDS011;11313;50.116;8.424;2023-04-01T16:46:33;375.92;;;352.27;;
22289;SDS011;11313;50.116;8.424;2023-04-01T16:52:00;346.08;;;324.88;;
22289;SDS011;11313;50.116;8.424;2023-04-01T16:54:30;347.55;;;326.30;;
22289;SDS011;11313;50.116;8.424;2023-04-01T16:57:19;350.70;;;329.50;;
22289;SDS011;11313;50.116;8.424;2023-04-01T16:59:54;377.75;;;354.23;;
22289;SDS011;11313;50.116;8.424;2023-04-01T17:02:23;323.17;;;303.75;;
22289;SDS011;11313;50.116;8.424;2023-04-01T17:05:06;355.65;;;334.20;;
22289;SDS011;11313;50.116;8.424;2023-04-01T17:15:43;409.52;;;384.50;;
22289;SDS011;11313;50.116;8.424;2023-04-01T17:27:34;414.38;;;388.45;;
22289;SDS011;11313;50.116;8.424;2023-04-01T17:33:23;449.52;;;420.80;;
22289;SDS011;11313;50.116;8.424;2023-04-01T17:44:16;444.77;;;416.77;;
22289;SDS011;11313;50.116;8.424;2023-04-01T17:49:28;438.55;;;411.02;;
22289;SDS011;11313;50.116;8.424;2023-04-01T17:55:19;471.05;;;440.73;;
22289;SDS011;11313;50.116;8.424;2023-04-01T17:58:03;443.67;;;415.58;;
22289;SDS011;11313;50.116;8.424;2023-04-01T18:00:49;491.33;;;459.95;;
22289;SDS011;11313;50.116;8.424;2023-04-01T18:06:36;579.88;;;540.28;;
22289;SDS011;11313;50.116;8.424;2023-04-01T18:09:32;550.38;;;513.58;;
22289;SDS011;11313;50.116;8.424;2023-04-01T18:12:16;464.40;;;434.80;;
22289;SDS011;11313;50.116;8.424;2023-04-01T18:18:10;413.65;;;387.27;;
22289;SDS011;11313;50.116;8.424;2023-04-01T18:21:43;512.97;;;478.90;;
22289;SDS011;11313;50.116;8.424;2023-04-01T18:23:57;538.20;;;502.52;;
22289;SDS011;11313;50.116;8.424;2023-04-01T18:26:34;475.48;;;444.60;;
22289;SDS011;11313;50.116;8.424;2023-04-01T18:32:08;513.22;;;479.50;;
22289;SDS011;11313;50.116;8.424;2023-04-01T18:38:00;538.25;;;502.70;;
22289;SDS011;11313;50.116;8.424;2023-04-01T18:40:32;541.72;;;505.98;;
22289;SDS011;11313;50.116;8.424;2023-04-01T18:51:16;592.25;;;551.72;;
22289;SDS011;11313;50.116;8.424;2023-04-01T18:54:32;534.80;;;499.55;;
22289;SDS011;11313;50.116;8.424;2023-04-01T18:57:10;602.95;;;560.88;;
22289;SDS011;11313;50.116;8.424;2023-04-01T18:59:39;547.47;;;510.58;;
22289;SDS011;11313;50.116;8.424;2023-04-01T19:02:50;533.78;;;499.05;;
22289;SDS011;11313;50.116;8.424;2023-04-01T19:05:07;603.90;;;563.00;;
22289;SDS011;11313;50.116;8.424;2023-04-01T19:07:47;646.10;;;601.25;;
22289;SDS011;11313;50.116;8.424;2023-04-01T19:13:08;635.10;;;590.75;;
22289;SDS011;11313;50.116;8.424;2023-04-01T19:16:02;566.28;;;528.10;;
22289;SDS011;11313;50.116;8.424;2023-04-01T19:18:50;550.00;;;513.65;;
22289;SDS011;11313;50.116;8.424;2023-04-01T19:21:35;612.30;;;569.67;;
22289;SDS011;11313;50.116;8.424;2023-04-01T19:24:17;572.75;;;534.53;;
22289;SDS011;11313;50.116;8.424;2023-04-01T19:27:10;622.97;;;578.95;;
22289;SDS011;11313;50.116;8.424;2023-04-01T19:29:58;661.42;;;614.50;;
22289;SDS011;11313;50.116;8.424;2023-04-01T19:32:48;616.75;;;574.70;;
22289;SDS011;11313;50.116;8.424;2023-04-01T19:38:25;593.08;;;552.60;;
22289;SDS011;11313;50.116;8.424;2023-04-01T19:46:18;577.03;;;537.50;;
22289;SDS011;11313;50.116;8.424;2023-04-01T19:49:14;610.70;;;569.50;;
22289;SDS011;11313;50.116;8.424;2023-04-01T19:54:46;648.85;;;603.28;;
22289;SDS011;11313;50.116;8.424;2023-04-01T19:57:27;606.08;;;564.60;;
22289;SDS011;11313;50.116;8.424;2023-04-01T20:02:54;623.17;;;579.33;;
22289;SDS011;11313;50.116;8.424;2023-04-01T20:05:27;577.83;;;538.15;;
22289;SDS011;11313;50.116;8.424;2023-04-01T20:08:11;556.22;;;519.17;;
22289;SDS011;11313;50.116;8.424;2023-04-01T20:11:08;500.85;;;469.00;;
22289;SDS011;11313;50.116;8.424;2023-04-01T20:19:29;524.53;;;489.98;;
22289;SDS011;11313;50.116;8.424;2023-04-01T20:22:00;529.10;;;494.17;;
22289;SDS011;11313;50.116;8.424;2023-04-01T20:24:30;631.85;;;587.55;;
22289;SDS011;11313;50.116;8.424;2023-04-01T20:27:14;632.92;;;589.72;;
22289;SDS011;11313;50.116;8.424;2023-04-01T20:30:03;549.72;;;513.20;;
22289;SDS011;11313;50.116;8.424;2023-04-01T20:32:58;683.97;;;634.33;;
22289;SDS011;11313;50.116;8.424;2023-04-01T20:35:57;674.10;;;625.38;;
22289;SDS011;11313;50.116;8.424;2023-04-01T20:44:20;574.55;;;535.72;;
22289;SDS011;11313;50.116;8.424;2023-04-01T20:55:55;447.08;;;418.40;;
22289;SDS011;11313;50.116;8.424;2023-04-01T21:03:49;443.75;;;416.23;;
22289;SDS011;11313;50.116;8.424;2023-04-01T21:06:31;570.13;;;531.53;;
22289;SDS011;11313;50.116;8.424;2023-04-01T21:31:35;655.03;;;609.03;;
22289;SDS011;11313;50.116;8.424;2023-04-01T21:34:28;706.50;;;654.08;;
22289;SDS011;11313;50.116;8.424;2023-04-01T21:42:32;675.22;;;627.22;;
22289;SDS011;11313;50.116;8.424;2023-04-01T21:45:18;695.70;;;644.33;;
22289;SDS011;11313;50.116;8.424;2023-04-01T21:53:56;691.47;;;640.95;;
22289;SDS011;11313;50.116;8.424;2023-04-01T21:56:57;768.50;;;709.40;;
22289;SDS011;11313;50.116;8.424;2023-04-01T22:05:22;719.00;;;666.63;;
22289;SDS011;11313;50.116;8.424;2023-04-01T22:10:37;652.55;;;606.65;;
22289;SDS011;11313;50.116;8.424;2023-04-01T22:13:16;690.03;;;640.30;;
22289;SDS011;11313;50.116;8.424;2023-04-01T22:16:05;775.10;;;715.28;;
22289;SDS011;11313;50.116;8.424;2023-04-01T22:18:55;748.85;;;692.75;;
22289;SDS011;11313;50.116;8.424;2023-04-01T22:21:42;720.60;;;666.92;;
22289;SDS011;11313;50.116;8.424;2023-04-01T22:24:22;726.45;;;672.78;;
22289;SDS011;11313;50.116;8.424;2023-04-01T22:30:00;592.15;;;551.65;;
22289;SDS011;11313;50.116;8.424;2023-04-01T22:32:37;666.55;;;619.15;;
22289;SDS011;11313;50.116;8.424;2023-04-01T22:35:18;686.13;;;635.55;;
22289;SDS011;11313;50.116;8.424;2023-04-01T22:38:03;696.17;;;644.90;;
22289;SDS011;11313;50.116;8.424;2023-04-01T22:43:16;725.60;;;671.08;;
22289;SDS011;11313;50.116;8.424;2023-04-01T22:46:01;764.78;;;706.95;;
22289;SDS011;11313;50.116;8.424;2023-04-01T22:51:20;656.25;;;610.65;;
22289;SDS011;11313;50.116;8.424;2023-04-01T22:59:15;747.45;;;691.67;;